Historyczne dane pomiarowe

Dodano dane terminowe – wersja testowa.

Dane z okresu 1951-2019

Wersja bazy: 1.34 [2019-03-16, lista zmian], aktualizacja planowana na 2019-04-15

Dane meteo z obszaru Polski uzyskane na podstawie danych udostępnionych przez Instytut Meteorologii i Gospodarki Wodnej – Państwowy Instytut Badawczy.

 

Wybierz Datę:    

       

TemperaturaWilgotnośćWiatrCiśnienieOpadyŚniegCzas trwania zjawisk
 Stacja t tx tn tng RH VA  wxwx mslp ppp RRR   cm mm wxwxwxwxwxwxwx
1956-11-09 -1.7 -0.2 -3.3 -7.2 76.5- 8.0 2.0---- 0.0------------
1956-11-08 -0.8 3.1 -4.1 -9.6 78.5- 4.0 0.3---- 0.0------------
1956-11-07 -0.8 1.7 -2.1 -4.1 83.3- 4.7 1.7---- 0.0-- 2---------
1956-11-06 0.7 2.4 -0.5 -2.1 86.0- 6.3 3.7---- 1.1------------
1956-11-05 3.1 6.9 0.6 0.9 82.0- 5.0 5.0---- 3.6------------
1956-11-04 1.0 2.0 -2.9 -5.4 80.0- 7.7 3.0---- 0.0------------
1956-11-03 -0.2 3.6 -2.3 -4.7 82.3- 4.7 0.3---- 0.0------------
1956-11-02 1.0 4.6 -1.1 -1.3 84.0- 6.3 0.7---- 0.0------------
1956-11-01 0.3 2.0 -5.4 -9.4 90.8- 8.0 3.0---- 0.2------------
1956-10-31 -4.9 0.1 -8.6-10.5 74.8- 3.3 0.7---- 0.0------------
1956-10-30 -3.5 -0.4 -5.4 -2.5 86.5- 5.3 2.3---- 0.5------------
1956-10-29 0.7 4.8 -1.0 2.6 94.3- 8.0 4.0---- 2.0------------
1956-10-28 6.0 7.6 4.4 6.0 97.8- 8.0 3.3---- 4.8------------
1956-10-27 6.4 6.4 4.8 3.8 92.8- 8.0 5.7---- 14.1------------
1956-10-26 6.3 8.5 5.0 1.7 87.3- 8.0 0.0---- 0.8------------
1956-10-25 10.0 13.8 8.1 7.5 87.3- 6.0 4.7---- 1.4------------
1956-10-24 11.4 12.8 8.5 7.4 87.8- 7.7 4.3---- 0.0------------
1956-10-23 9.7 11.6 7.9 8.4 82.0- 7.7 4.3---- 0.0------------
1956-10-22 11.2 12.8 10.2 9.5 80.0- 8.0 5.3---- 0.0------------
1956-10-21 11.7 14.2 9.2 7.9 87.3- 8.0 4.0---- 0.0------------
1956-10-20 9.5 11.8 5.0 1.1 90.5- 8.0 1.7---- 0.0------------
1956-10-19 10.1 12.5 7.4 10.8 89.0- 8.0 3.7---- 0.0------------
1956-10-18 10.8 12.5 5.4 3.8 95.3- 8.0 2.3---- 0.7------------
1956-10-17 7.6 14.2 2.2 -1.4 83.0- 2.7 3.3---- 0.0------------
1956-10-16 6.2 13.5 0.7 -5.1 85.0- 0.7 0.0---- 0.0------------
1956-10-15 5.5 11.0 1.6 -3.9 81.3- 0.0 1.7---- 0.0------------
1956-10-14 6.5 10.1 4.7 4.0 75.3- 3.3 6.0---- 0.0------------
1956-10-13 9.4 11.3 8.2 6.7 85.5- 8.0 12.0---- 9.2------------
1956-10-12 9.5 10.5 7.9 8.3 83.0- 8.0 6.7---- 0.0------------
1956-10-11 8.9 10.4 3.8 1.0 87.5- 7.7 5.7---- 0.0------------
1956-10-10 5.2 9.2 -0.4 -4.4 79.0- 6.3 1.3---- 0.0------------
1956-10-09 6.2 10.6 3.3 1.9 88.8- 6.0 3.7---- 0.9------------
1956-10-08 4.8 7.7 3.1 0.7 91.5- 6.3 1.7---- 4.1------------
1956-10-07 5.9 8.3 4.9 4.4 89.0- 7.7 7.7---- 2.6------------
1956-10-06 5.7 7.3 3.2 -0.9 92.0- 6.7 0.7---- 0.9------------
1956-10-05 6.8 10.5 4.2 4.4 90.5- 5.0 2.3---- 0.2------------
1956-10-04 9.6 13.5 4.5 0.1 90.3- 7.7 2.3---- 0.6------------
1956-10-03 9.8 15.1 6.1 10.3 91.5- 5.3 4.7---- 0.7------------
1956-10-02 14.8 21.0 9.9 6.9 89.5- 6.7 3.0---- 17.8------------
1956-10-01 13.0 17.9 7.0 2.5 93.8- 5.0 2.0---- 2.0------------
1956-09-30 11.4 17.7 8.3 6.3 85.8- 4.0 2.0---- 0.0------------
1956-09-29 12.8 16.3 10.7 10.3 85.8- 3.7 5.7---- 0.0------------
1956-09-28 14.8 17.6 13.1 12.5 85.0- 5.7 4.7---- 0.6------------
1956-09-27 15.3 21.2 9.8 6.5 83.3- 4.7 2.3---- 1.4------------
1956-09-26 15.1 22.6 8.3 5.0 68.5- 0.0 2.7---- 0.0------------
1956-09-25 11.4 18.3 2.8 0.1 72.3- 0.3 2.3---- 0.0------------
1956-09-24 8.8 15.4 3.4 1.3 64.8- 0.0 3.0---- 0.0------------
1956-09-23 10.5 16.8 6.7 4.7 76.8- 3.3 3.0---- 0.0------------
1956-09-22 12.0 18.5 6.0 2.2 82.8- 0.0 2.0---- 0.0------------
1956-09-21 10.9 18.3 4.9 -0.8 81.0- 2.7 0.3---- 0.0------------
1956-09-20 10.5 16.4 5.7 0.1 78.5- 3.7 0.7---- 0.0------------
1956-09-19 9.2 16.2 2.5 -1.9 80.0- 3.3 0.3---- 0.0------------
1956-09-18 8.7 14.2 5.2 2.5 84.5- 1.7 2.0---- 0.0------------
1956-09-17 8.6 14.2 6.1 5.0 74.5- 3.3 3.7---- 0.0------------
1956-09-16 10.7 14.6 4.6 1.2 79.3- 5.3 6.3---- 2.1------------
1956-09-15 10.0 15.2 6.8 2.8 80.8- 4.0 4.0---- 0.0------------
1956-09-14 9.9 16.7 5.0 2.1 85.3- 1.0 0.7---- 0.0------------
1956-09-13 8.5 10.7 5.7 4.0 91.0- 4.0 4.3---- 5.2------------
1956-09-12 10.1 14.6 8.1 10.6 82.3- 6.7 8.0---- 12.3------------
1956-09-11 14.8 19.1 10.3 9.8 86.8- 5.7 1.0---- 11.7------------
245.3 ms

 

Źródłem pochodzenia danych jest Instytut Meteorologii i Gospodarki Wodnej – Państwowy Instytut Badawczy. Dane Instytutu Meteorologii i Gospodarki Wodnej – Państwowego Instytutu Badawczego zostały przetworzone.

Dane źródłowe można odnaleźć na stronie https://dane.imgw.pl